Time;durP1;ratioP1;P1;durP2;ratioP2;P2;SDS_P1;SDS_P2;PMS_P1;PMS_P2;Temp;Humidity;BMP_temperature;BMP_pressure;BME280_temperature;BME280_humidity;BME280_pressure;Samples;Min_cycle;Max_cycle;Signal;HPM_P1;HPM_P2
2021/04/10 00:00:42;;;;;;;27.85;17.50;;;12.80;99.90;;;;;;12047228;28;20459;-79
2021/04/10 00:06:29;;;;;;;27.50;18.42;;;12.90;99.90;;;;;;12049273;28;20053;-78
2021/04/10 00:12:15;;;;;;;28.48;17.02;;;12.80;99.90;;;;;;12049230;28;20048;-77
2021/04/10 00:18:02;;;;;;;29.85;18.13;;;12.90;99.90;;;;;;12044462;28;20098;-77
2021/04/10 00:23:49;;;;;;;29.05;16.23;;;12.90;99.90;;;;;;12047049;28;20052;-77
2021/04/10 00:29:35;;;;;;;32.50;16.98;;;12.90;99.90;;;;;;12047468;28;20053;-77
2021/04/10 00:35:22;;;;;;;31.65;16.10;;;12.90;99.90;;;;;;12043311;28;20585;-78
2021/04/10 00:41:11;;;;;;;36.45;19.10;;;12.80;99.90;;;;;;12055496;28;20101;-77
2021/04/10 00:46:57;;;;;;;31.25;17.95;;;12.80;99.90;;;;;;12052940;28;20047;-78
2021/04/10 00:52:45;;;;;;;32.70;18.55;;;12.70;99.90;;;;;;12049299;28;20104;-78
2021/04/10 00:58:33;;;;;;;38.22;17.60;;;12.70;99.90;;;;;;12052298;28;20094;-78
2021/04/10 01:04:20;;;;;;;29.23;17.25;;;12.60;99.90;;;;;;12050663;28;20584;-77
2021/04/10 01:10:07;;;;;;;30.52;17.55;;;12.50;99.90;;;;;;12049570;28;20055;-78
2021/04/10 01:16:01;;;;;;;28.63;17.50;;;12.60;99.90;;;;;;12047625;28;20051;-77
2021/04/10 01:21:52;;;;;;;30.85;16.25;;;12.60;99.90;;;;;;12044707;28;20105;-77
2021/04/10 01:27:41;;;;;;;28.40;17.70;;;12.70;99.90;;;;;;12046801;28;20040;-78
2021/04/10 01:33:33;;;;;;;28.92;18.52;;;12.50;99.90;;;;;;12048842;28;20114;-78
2021/04/10 01:39:20;;;;;;;35.80;18.52;;;12.60;99.90;;;;;;12043092;28;20060;-77
2021/04/10 01:45:09;;;;;;;29.95;17.90;;;12.60;99.90;;;;;;12049356;28;20043;-78
2021/04/10 01:50:57;;;;;;;28.08;16.88;;;12.70;99.90;;;;;;12048392;28;20045;-78
2021/04/10 01:56:46;;;;;;;30.25;17.40;;;12.70;99.90;;;;;;12045247;28;20036;-78
2021/04/10 02:02:35;;;;;;;31.60;18.13;;;12.80;99.90;;;;;;12049348;28;20072;-78
2021/04/10 02:08:25;;;;;;;29.95;17.92;;;12.80;99.90;;;;;;12047827;28;20055;-78
2021/04/10 02:14:12;;;;;;;31.23;18.02;;;12.80;99.90;;;;;;12045658;28;20051;-78
2021/04/10 02:19:58;;;;;;;31.20;18.50;;;12.80;99.90;;;;;;12048952;28;20056;-78
2021/04/10 02:25:46;;;;;;;35.50;18.85;;;12.70;99.90;;;;;;12049892;28;20415;-77
2021/04/10 02:31:37;;;;;;;33.78;18.55;;;12.80;99.90;;;;;;12050040;28;20048;-78
2021/04/10 02:37:26;;;;;;;34.20;19.33;;;12.80;99.90;;;;;;12046826;28;20114;-78
2021/04/10 02:43:21;;;;;;;35.15;19.75;;;12.80;99.90;;;;;;12048902;28;20679;-78
2021/04/10 02:49:12;;;;;;;41.97;21.38;;;12.80;99.90;;;;;;12049566;28;20048;-78
2021/04/10 02:55:01;;;;;;;36.95;20.27;;;12.90;99.90;;;;;;12050512;28;20051;-78
2021/04/10 03:00:53;;;;;;;39.50;21.10;;;12.80;99.90;;;;;;12050357;28;21092;-78
2021/04/10 03:06:40;;;;;;;37.00;22.25;;;12.80;99.90;;;;;;12050598;28;20052;-78
2021/04/10 03:12:27;;;;;;;37.58;21.65;;;12.80;99.90;;;;;;12045234;28;21671;-78
2021/04/10 03:18:14;;;;;;;38.78;22.08;;;12.80;99.90;;;;;;12045878;28;20074;-78
2021/04/10 03:24:01;;;;;;;43.20;23.35;;;12.80;99.90;;;;;;12044950;28;20044;-77
2021/04/10 07:50:59;;;;;;;36.92;22.60;;;11.10;99.90;;;;;;12061622;28;20421;-78
2021/04/10 07:56:52;;;;;;;31.58;19.08;;;11.80;99.90;;;;;;12028837;28;20049;-79
2021/04/10 08:02:39;;;;;;;27.00;14.57;;;12.70;99.90;;;;;;12025257;28;20890;-79
2021/04/10 08:08:26;;;;;;;24.52;12.30;;;13.30;99.90;;;;;;12031212;28;20060;-79
2021/04/10 08:14:14;;;;;;;20.92;11.73;;;13.70;99.90;;;;;;12032164;28;20044;-79
2021/04/10 08:20:20;;;;;;;22.95;11.57;;;13.90;99.90;;;;;;12024330;28;20056;-79
2021/04/10 08:26:07;;;;;;;21.55;10.00;;;14.00;99.90;;;;;;12022029;28;20443;-79
2021/04/10 08:31:55;;;;;;;17.83;10.07;;;14.00;99.90;;;;;;11982735;28;20680;-78
2021/04/10 08:37:43;;;;;;;14.35;7.15;;;14.20;99.90;;;;;;11977461;28;20416;-78
2021/04/10 08:43:32;;;;;;;10.52;5.88;;;14.10;99.90;;;;;;11956476;28;20045;-75
2021/04/10 08:49:20;;;;;;;14.07;5.57;;;14.20;99.90;;;;;;11970973;28;20088;-74
2021/04/10 08:55:09;;;;;;;9.10;3.95;;;14.20;99.90;;;;;;11985759;28;20057;-78
2021/04/10 09:00:58;;;;;;;11.75;4.20;;;13.90;99.90;;;;;;11957269;28;20678;-77
2021/04/10 09:06:49;;;;;;;10.95;3.55;;;14.20;99.90;;;;;;11951191;28;20046;-78
2021/04/10 09:12:35;;;;;;;9.35;3.55;;;14.30;99.90;;;;;;11954490;28;20053;-79
2021/04/10 09:18:35;;;;;;;12.63;4.80;;;14.40;99.90;;;;;;11954700;28;20100;-77
2021/04/10 09:24:32;;;;;;;9.93;3.25;;;14.60;99.90;;;;;;11947663;28;20061;-78
2021/04/10 09:30:37;;;;;;;9.20;3.20;;;14.80;99.90;;;;;;11951213;28;20428;-78
2021/04/10 09:36:45;;;;;;;5.40;2.72;;;14.60;99.90;;;;;;11957106;28;20065;-79
2021/04/10 09:42:45;;;;;;;7.65;3.30;;;14.80;99.90;;;;;;11952258;28;20042;-78
2021/04/10 09:48:36;;;;;;;13.65;3.25;;;14.50;99.90;;;;;;11947542;28;20537;-77
2021/04/10 09:54:26;;;;;;;11.43;3.00;;;14.30;99.90;;;;;;11951147;28;20084;-78
2021/04/10 10:00:14;;;;;;;6.93;3.17;;;14.40;99.90;;;;;;11955938;28;20496;-78
2021/04/10 10:06:00;;;;;;;7.63;3.05;;;14.50;99.90;;;;;;11950387;28;20060;-77
2021/04/10 10:11:50;;;;;;;14.15;3.13;;;14.90;99.90;;;;;;11953528;28;20061;-79
2021/04/10 10:17:37;;;;;;;6.63;3.30;;;15.20;99.90;;;;;;11954762;28;20061;-78
2021/04/10 10:23:25;;;;;;;7.78;3.10;;;15.00;99.90;;;;;;11953895;28;20054;-77
2021/04/10 10:29:15;;;;;;;9.82;3.20;;;15.10;99.90;;;;;;11945703;28;20054;-77
2021/04/10 10:35:07;;;;;;;12.18;3.15;;;15.60;99.90;;;;;;11949085;28;20053;-79
2021/04/10 10:40:53;;;;;;;8.18;3.05;;;15.70;99.90;;;;;;11949033;28;20626;-76
2021/04/10 10:46:40;;;;;;;9.18;3.70;;;15.80;99.90;;;;;;11949116;28;20123;-77
2021/04/10 10:52:27;;;;;;;8.05;3.25;;;15.90;99.90;;;;;;11943892;28;20056;-75
2021/04/10 10:58:14;;;;;;;6.07;3.15;;;15.80;99.90;;;;;;11947311;28;20053;-77
2021/04/10 11:04:04;;;;;;;9.25;3.55;;;15.60;99.90;;;;;;11943527;28;20053;-77
2021/04/10 11:09:51;;;;;;;9.68;3.65;;;15.40;99.90;;;;;;11944507;28;20041;-76
2021/04/10 11:15:39;;;;;;;7.93;3.80;;;15.50;99.90;;;;;;11946209;28;20049;-77
2021/04/10 11:21:28;;;;;;;8.70;3.65;;;15.60;99.90;;;;;;11944249;28;20068;-78
2021/04/10 11:27:17;;;;;;;10.55;4.28;;;15.70;99.90;;;;;;11943016;28;20049;-75
2021/04/10 11:33:03;;;;;;;9.68;4.70;;;15.40;99.90;;;;;;11939749;28;20072;-74
2021/04/10 11:39:04;;;;;;;7.22;4.15;;;15.20;99.90;;;;;;11943235;28;20053;-82
2021/04/10 11:44:50;;;;;;;13.52;5.15;;;15.20;99.90;;;;;;11948936;28;20417;-78
2021/04/10 11:50:51;;;;;;;23.27;5.45;;;15.20;99.90;;;;;;11947042;28;20053;-84
2021/04/10 11:56:44;;;;;;;11.95;5.20;;;14.90;99.90;;;;;;11959148;28;20056;-82
2021/04/10 12:02:34;;;;;;;11.75;5.20;;;15.00;99.90;;;;;;11944011;28;20049;-77
2021/04/10 12:08:25;;;;;;;8.95;5.35;;;15.20;99.90;;;;;;11941080;28;20137;-78
2021/04/10 12:14:13;;;;;;;11.02;5.90;;;15.40;99.90;;;;;;11935192;28;20065;-76
2021/04/10 12:19:59;;;;;;;14.85;5.75;;;15.50;99.90;;;;;;11936346;28;20049;-77
2021/04/10 12:25:46;;;;;;;12.45;5.63;;;15.70;99.90;;;;;;11935242;28;20057;-78
2021/04/10 12:31:34;;;;;;;15.27;7.72;;;15.50;99.90;;;;;;11939741;28;20057;-76
2021/04/10 12:37:20;;;;;;;14.02;6.65;;;15.20;99.90;;;;;;11964477;28;20045;-78
2021/04/10 12:43:06;;;;;;;15.25;7.65;;;15.10;99.90;;;;;;11956350;28;20303;-77
2021/04/10 12:48:53;;;;;;;15.63;7.40;;;15.50;99.90;;;;;;11947605;28;20053;-78
2021/04/10 12:54:40;;;;;;;16.25;8.43;;;15.80;99.90;;;;;;11954595;28;20056;-78
2021/04/10 13:00:26;;;;;;;15.15;7.10;;;16.00;99.90;;;;;;11957137;28;20057;-79
2021/04/10 13:06:14;;;;;;;14.80;6.90;;;16.20;99.90;;;;;;11955773;28;20635;-79
2021/04/10 13:12:01;;;;;;;13.80;6.10;;;16.50;99.90;;;;;;11953252;28;20053;-78
2021/04/10 13:17:47;;;;;;;11.68;6.50;;;16.30;99.90;;;;;;11955940;28;21297;-76
2021/04/10 13:23:35;;;;;;;11.90;6.50;;;16.10;99.90;;;;;;11953793;28;20054;-77
2021/04/10 13:29:22;;;;;;;14.10;6.70;;;16.00;99.90;;;;;;11943465;28;20404;-78
2021/04/10 13:35:09;;;;;;;10.57;5.70;;;15.80;99.90;;;;;;11956818;28;20050;-78
2021/04/10 13:40:57;;;;;;;15.07;5.65;;;15.90;99.90;;;;;;11952942;28;20041;-78
2021/04/10 13:46:44;;;;;;;17.20;5.88;;;16.10;99.90;;;;;;11951328;28;20053;-78
2021/04/10 13:52:30;;;;;;;12.07;6.88;;;16.30;99.90;;;;;;11952779;28;20049;-78
2021/04/10 13:58:17;;;;;;;13.93;6.97;;;16.10;99.90;;;;;;11956057;28;20114;-78
2021/04/10 14:04:04;;;;;;;12.85;5.45;;;16.20;99.90;;;;;;11955907;28;20045;-78
2021/04/10 14:09:52;;;;;;;9.95;5.20;;;16.00;99.90;;;;;;11955709;28;20048;-77
2021/04/10 14:15:40;;;;;;;9.75;6.00;;;15.90;99.90;;;;;;11948593;28;20513;-79
2021/04/10 14:21:26;;;;;;;9.82;5.18;;;15.80;99.90;;;;;;11956844;28;20053;-78
2021/04/10 14:27:14;;;;;;;6.72;4.88;;;16.00;99.90;;;;;;11952494;28;20037;-79
2021/04/10 14:33:00;;;;;;;9.68;5.15;;;15.90;99.90;;;;;;11949133;28;20052;-78
2021/04/10 14:38:47;;;;;;;10.68;5.18;;;15.90;99.90;;;;;;11953497;28;20136;-76
2021/04/10 14:44:34;;;;;;;16.20;5.25;;;15.90;99.90;;;;;;11947177;28;20061;-77
2021/04/10 14:50:21;;;;;;;8.93;5.95;;;15.90;99.90;;;;;;11943807;28;20053;-77
2021/04/10 14:56:10;;;;;;;10.60;5.65;;;16.30;99.90;;;;;;11948403;28;20049;-78
2021/04/10 15:01:57;;;;;;;11.48;4.88;;;16.20;99.90;;;;;;11959139;28;20061;-78
2021/04/10 15:07:44;;;;;;;10.30;4.50;;;16.10;99.90;;;;;;11953351;28;20538;-78
2021/04/10 15:13:30;;;;;;;12.38;5.28;;;16.10;99.90;;;;;;11950737;28;20068;-78
2021/04/10 15:19:17;;;;;;;10.43;5.20;;;16.00;99.90;;;;;;11949900;28;20049;-78
2021/04/10 15:25:05;;;;;;;8.48;5.65;;;16.10;99.90;;;;;;11945357;28;21472;-78
2021/04/10 15:30:52;;;;;;;9.93;4.93;;;16.30;99.90;;;;;;11947433;28;20041;-77
2021/04/10 15:36:39;;;;;;;10.30;4.65;;;16.20;99.90;;;;;;11947663;28;20057;-77
2021/04/10 15:42:25;;;;;;;6.50;4.03;;;16.40;99.90;;;;;;11952829;28;20053;-78
2021/04/10 15:48:12;;;;;;;10.45;3.10;;;16.10;99.90;;;;;;11955378;28;20045;-82
2021/04/10 15:53:59;;;;;;;5.88;3.88;;;16.00;99.90;;;;;;11943861;28;20045;-78
2021/04/10 15:59:45;;;;;;;5.95;3.88;;;16.00;99.90;;;;;;11946765;28;20057;-78
2021/04/10 16:05:32;;;;;;;6.78;3.92;;;16.10;99.90;;;;;;11949356;28;20057;-79
2021/04/10 16:11:21;;;;;;;11.00;3.92;;;16.00;99.90;;;;;;11959777;28;20065;-80
2021/04/10 16:17:07;;;;;;;7.40;4.07;;;16.00;99.90;;;;;;11956491;28;20343;-79
2021/04/10 16:22:54;;;;;;;11.38;4.68;;;16.10;99.90;;;;;;11944758;28;20053;-79
2021/04/10 16:28:41;;;;;;;11.07;5.40;;;16.10;99.90;;;;;;11959022;28;20045;-79
2021/04/10 16:34:27;;;;;;;6.70;4.93;;;15.90;99.90;;;;;;11955990;28;20326;-78
2021/04/10 16:40:14;;;;;;;10.50;5.28;;;15.60;99.90;;;;;;11960194;28;20060;-76
2021/04/10 16:46:02;;;;;;;8.38;5.50;;;15.60;99.90;;;;;;11947047;28;20509;-76
2021/04/10 16:51:48;;;;;;;11.63;5.63;;;15.80;99.90;;;;;;11948187;28;20579;-75
2021/04/10 16:57:34;;;;;;;8.85;5.90;;;15.90;99.90;;;;;;11942204;28;20065;-77
2021/04/10 17:03:22;;;;;;;19.30;6.35;;;16.10;99.90;;;;;;11948945;28;20050;-77
2021/04/10 17:09:08;;;;;;;12.07;6.72;;;16.10;99.90;;;;;;11950699;28;20049;-78
2021/04/10 17:14:55;;;;;;;11.07;6.28;;;16.00;99.90;;;;;;11949388;28;21092;-81
2021/04/10 17:20:42;;;;;;;12.27;6.50;;;15.80;99.90;;;;;;11948385;28;20437;-78
2021/04/10 17:26:29;;;;;;;12.05;6.82;;;15.80;99.90;;;;;;11953766;28;20550;-78
2021/04/10 17:32:15;;;;;;;13.27;7.53;;;15.90;99.90;;;;;;11951831;28;20045;-79
2021/04/10 17:38:03;;;;;;;13.90;6.97;;;15.90;99.90;;;;;;11957531;28;20045;-78
2021/04/10 17:43:49;;;;;;;5.80;3.45;;;15.70;99.90;;;;;;11964304;28;20045;-78
2021/04/10 17:49:36;;;;;;;4.00;3.05;;;15.00;99.90;;;;;;11958718;28;20057;-77
2021/04/10 17:55:26;;;;;;;5.55;3.15;;;14.70;99.90;;;;;;11957060;28;20056;-77
2021/04/10 18:01:15;;;;;;;7.40;3.15;;;14.70;99.90;;;;;;11958178;28;20045;-78
2021/04/10 18:07:01;;;;;;;5.97;4.05;;;14.50;99.90;;;;;;11959185;28;20041;-77
2021/04/10 18:12:52;;;;;;;13.40;5.20;;;14.50;99.90;;;;;;11953367;28;20119;-78
2021/04/10 18:18:39;;;;;;;12.93;5.88;;;14.30;99.90;;;;;;11954959;28;20053;-79
2021/04/10 18:24:25;;;;;;;8.98;4.82;;;14.50;99.90;;;;;;11951586;28;20057;-78
2021/04/10 18:30:14;;;;;;;14.75;8.02;;;14.20;99.90;;;;;;11950759;28;20053;-79
2021/04/10 18:36:00;;;;;;;13.65;7.80;;;14.20;99.90;;;;;;11955615;28;20570;-79
2021/04/10 18:41:47;;;;;;;11.77;6.10;;;14.20;99.90;;;;;;11953967;28;20045;-79
2021/04/10 18:47:34;;;;;;;11.38;7.32;;;14.00;99.90;;;;;;11946624;28;20045;-77
2021/04/10 18:53:20;;;;;;;18.15;7.13;;;13.90;99.90;;;;;;11939131;28;20052;-78
2021/04/10 18:59:08;;;;;;;13.52;8.20;;;13.70;99.90;;;;;;11942143;28;20045;-78
2021/04/10 19:04:55;;;;;;;12.35;8.38;;;13.60;99.90;;;;;;11938805;28;20068;-78
2021/04/10 19:10:43;;;;;;;13.82;10.70;;;13.70;99.90;;;;;;11948722;28;20042;-78
2021/04/10 19:16:30;;;;;;;11.73;8.60;;;13.70;99.90;;;;;;11951840;28;20706;-79
2021/04/10 19:22:19;;;;;;;10.18;8.40;;;13.60;99.90;;;;;;11953772;28;20057;-79
2021/04/10 19:28:06;;;;;;;10.63;9.00;;;13.50;99.90;;;;;;11951681;28;20512;-79
2021/04/10 19:33:54;;;;;;;14.18;9.75;;;13.40;99.90;;;;;;11964007;28;20045;-79
2021/04/10 19:39:41;;;;;;;13.48;10.68;;;13.50;99.90;;;;;;11960419;28;20188;-79
2021/04/10 19:45:30;;;;;;;14.15;10.88;;;13.60;99.90;;;;;;11953941;28;20056;-79
2021/04/10 19:51:17;;;;;;;13.52;10.82;;;13.70;99.90;;;;;;11952131;28;20128;-79
2021/04/10 19:57:05;;;;;;;14.52;10.55;;;13.70;99.90;;;;;;11960406;28;20436;-79
2021/04/10 20:02:51;;;;;;;19.55;13.85;;;13.40;99.90;;;;;;11950029;28;20055;-80
2021/04/10 20:08:38;;;;;;;17.15;13.23;;;13.30;99.90;;;;;;11962474;28;20064;-80
2021/04/10 20:14:25;;;;;;;19.90;15.00;;;13.10;99.90;;;;;;11956853;28;20049;-80
2021/04/10 20:20:16;;;;;;;17.27;13.93;;;12.90;99.90;;;;;;11971153;28;20501;-80
2021/04/10 20:26:04;;;;;;;21.00;14.90;;;13.00;99.90;;;;;;11973845;28;20046;-80
2021/04/10 20:31:51;;;;;;;14.45;12.30;;;13.30;99.90;;;;;;11941305;28;20060;-80
2021/04/10 20:37:38;;;;;;;18.25;13.40;;;13.40;99.90;;;;;;11958918;28;20045;-80
2021/04/10 20:43:24;;;;;;;19.20;13.90;;;13.50;99.90;;;;;;11967405;28;20099;-80
2021/04/10 20:49:11;;;;;;;17.58;14.55;;;13.60;99.90;;;;;;11954084;28;20049;-79
2021/04/10 20:54:58;;;;;;;19.45;13.68;;;13.70;99.90;;;;;;11955483;28;20057;-79
2021/04/10 21:00:44;;;;;;;19.30;15.10;;;13.60;99.90;;;;;;11963635;28;20048;-79
2021/04/10 21:06:32;;;;;;;18.83;14.32;;;13.40;99.90;;;;;;11964595;28;20160;-79
2021/04/10 21:12:19;;;;;;;19.30;13.23;;;13.30;99.90;;;;;;11955134;28;20424;-79
2021/04/10 21:18:05;;;;;;;13.32;11.55;;;13.10;99.90;;;;;;11962368;28;20111;-79
2021/04/10 21:23:54;;;;;;;16.52;12.85;;;13.00;99.90;;;;;;11968415;28;20049;-79
2021/04/10 21:29:40;;;;;;;18.00;14.05;;;13.00;99.90;;;;;;11962693;28;20041;-80
2021/04/10 21:35:27;;;;;;;19.48;14.23;;;13.10;99.90;;;;;;11961362;28;20048;-79
2021/04/10 21:41:18;;;;;;;17.13;12.75;;;13.00;99.90;;;;;;11969335;28;20045;-79
2021/04/10 21:47:05;;;;;;;17.13;12.80;;;12.90;99.90;;;;;;11960799;28;20046;-80
2021/04/10 21:52:51;;;;;;;17.55;13.27;;;12.90;99.90;;;;;;11967108;28;20049;-79
2021/04/10 21:58:39;;;;;;;17.92;13.32;;;12.70;99.90;;;;;;11955608;28;20057;-79
2021/04/10 22:04:25;;;;;;;17.42;12.57;;;12.60;99.90;;;;;;11959419;28;20045;-79
2021/04/10 22:10:15;;;;;;;15.00;11.30;;;12.70;99.90;;;;;;11951495;28;20064;-79
2021/04/10 22:16:02;;;;;;;15.98;12.73;;;12.60;99.90;;;;;;11945615;28;20053;-79
2021/04/10 22:21:49;;;;;;;16.23;13.05;;;12.50;99.90;;;;;;11963615;28;20057;-79
2021/04/10 22:27:36;;;;;;;15.55;12.05;;;12.70;99.90;;;;;;11963207;28;20060;-79
2021/04/10 22:33:23;;;;;;;16.17;12.65;;;12.70;99.90;;;;;;11956176;28;20064;-78
2021/04/10 22:39:09;;;;;;;20.60;14.85;;;12.70;99.90;;;;;;11952668;28;20061;-79
2021/04/10 22:44:56;;;;;;;26.13;18.20;;;12.40;99.90;;;;;;11953619;28;20045;-79
2021/04/10 22:50:43;;;;;;;26.73;18.70;;;12.20;99.90;;;;;;11949898;28;20049;-78
2021/04/10 22:56:29;;;;;;;26.27;17.58;;;12.10;99.90;;;;;;11955982;28;20054;-78
2021/04/10 23:02:16;;;;;;;25.38;17.27;;;12.20;99.90;;;;;;11958928;28;20060;-78
2021/04/10 23:08:04;;;;;;;25.13;15.77;;;12.30;99.90;;;;;;11955324;28;20505;-78
2021/04/10 23:13:50;;;;;;;26.90;18.10;;;12.40;99.90;;;;;;11951934;28;20057;-78
2021/04/10 23:19:37;;;;;;;28.67;18.52;;;12.40;99.90;;;;;;11956357;28;20046;-77
2021/04/10 23:25:27;;;;;;;29.70;19.30;;;12.40;99.90;;;;;;11948582;28;20107;-78
2021/04/10 23:31:13;;;;;;;33.70;21.23;;;12.50;99.90;;;;;;11947413;28;20518;-78
2021/04/10 23:37:00;;;;;;;33.38;21.83;;;12.40;99.90;;;;;;11942763;28;20041;-78
2021/04/10 23:42:47;;;;;;;36.15;22.92;;;12.60;99.90;;;;;;11946229;28;20049;-78
2021/04/10 23:48:34;;;;;;;39.30;23.65;;;12.70;99.90;;;;;;11953985;28;20373;-79
2021/04/10 23:54:22;;;;;;;42.20;24.83;;;12.80;99.90;;;;;;11952408;28;20042;-78
